Time;durP1;ratioP1;P1;durP2;ratioP2;P2;SDS_P1;SDS_P2;PMS_P1;PMS_P2;Temp;Humidity;BMP_temperature;BMP_pressure;BME280_temperature;BME280_humidity;BME280_pressure;Samples;Min_cycle;Max_cycle;Signal;HPM_P1;HPM_P2
2022/01/24 00:00:17;;;;;;;51.47;29.38;;;7.00;99.90;;;;;;5052110;28;20025;-85
2022/01/24 00:02:44;;;;;;;51.45;28.35;;;7.00;99.90;;;;;;5053439;28;20028;-85
2022/01/24 00:05:12;;;;;;;50.97;28.55;;;7.00;99.90;;;;;;5019193;28;20021;-85
2022/01/24 00:07:37;;;;;;;51.03;30.10;;;7.00;99.90;;;;;;5018917;28;20025;-85
2022/01/24 00:10:09;;;;;;;50.10;30.15;;;7.00;99.90;;;;;;5052315;28;20017;-85
2022/01/24 00:12:45;;;;;;;45.33;27.05;;;7.00;99.90;;;;;;5052068;28;20094;-85
2022/01/24 00:17:47;;;;;;;42.17;26.10;;;7.00;99.90;;;;;;5052076;28;20385;-85
2022/01/24 00:28:42;;;;;;;37.45;23.85;;;6.90;99.90;;;;;;5038320;28;20086;-84
2022/01/24 00:31:08;;;;;;;36.08;24.20;;;6.90;99.90;;;;;;5071823;28;20434;-85
2022/01/24 00:33:33;;;;;;;39.30;23.60;;;6.90;99.90;;;;;;5045828;28;20065;-86
2022/01/24 00:35:59;;;;;;;34.50;22.02;;;6.90;99.90;;;;;;5051730;28;20060;-85
2022/01/24 00:38:25;;;;;;;40.72;24.30;;;6.90;99.90;;;;;;5035118;28;20033;-85
2022/01/24 00:40:51;;;;;;;36.72;22.55;;;6.90;99.90;;;;;;5035156;28;20029;-85
2022/01/24 00:46:06;;;;;;;35.50;22.42;;;6.80;99.90;;;;;;5036113;28;20076;-85
2022/01/24 00:48:52;;;;;;;36.00;22.27;;;6.80;99.90;;;;;;5042163;28;20017;-85
2022/01/24 00:56:27;;;;;;;30.77;18.95;;;6.70;99.90;;;;;;5055463;28;20037;-85
2022/01/24 00:58:53;;;;;;;29.85;19.85;;;6.70;99.90;;;;;;5055346;28;20040;-85
2022/01/24 01:01:18;;;;;;;29.83;19.27;;;6.70;99.90;;;;;;5055201;28;20385;-85
2022/01/24 01:03:44;;;;;;;29.70;20.10;;;6.60;99.90;;;;;;5037998;28;20480;-85
2022/01/24 01:06:11;;;;;;;23.42;16.65;;;6.70;99.90;;;;;;5055500;28;20021;-84
2022/01/24 01:19:38;;;;;;;27.27;18.92;;;6.60;99.90;;;;;;5041073;28;20229;-84
2022/01/24 01:22:04;;;;;;;27.60;18.60;;;6.60;99.90;;;;;;5055020;28;20354;-84
2022/01/24 01:24:34;;;;;;;27.30;18.98;;;6.70;99.90;;;;;;5038680;28;20074;-85
2022/01/24 01:27:06;;;;;;;27.00;19.13;;;6.70;99.90;;;;;;5038829;28;20362;-85
2022/01/24 01:29:45;;;;;;;28.23;19.00;;;6.70;99.90;;;;;;5066420;28;20017;-85
2022/01/24 01:35:00;;;;;;;28.02;18.17;;;6.70;99.90;;;;;;5075909;28;20382;-85
2022/01/24 01:38:01;;;;;;;28.45;18.42;;;6.70;99.90;;;;;;5060847;28;20028;-85
2022/01/24 01:56:41;;;;;;;27.55;17.25;;;6.70;99.90;;;;;;5037749;28;20124;-85
2022/01/24 01:59:07;;;;;;;27.17;19.40;;;6.70;99.90;;;;;;5054184;28;20457;-85
2022/01/24 02:01:32;;;;;;;27.52;18.27;;;6.70;99.90;;;;;;5054176;28;20029;-85
2022/01/24 02:04:02;;;;;;;26.50;18.10;;;6.70;99.90;;;;;;5055669;28;20083;-85
2022/01/24 02:06:29;;;;;;;27.75;18.30;;;6.70;99.90;;;;;;5054215;28;20025;-85
2022/01/24 02:09:04;;;;;;;26.85;17.48;;;6.70;99.90;;;;;;5037733;28;20030;-86
2022/01/24 02:11:30;;;;;;;24.48;16.13;;;6.70;99.90;;;;;;5053925;28;20053;-85
2022/01/24 02:13:58;;;;;;;24.90;17.27;;;6.80;99.90;;;;;;5053909;28;20503;-85
2022/01/24 02:16:36;;;;;;;29.85;17.67;;;6.80;99.90;;;;;;5071035;28;20045;-86
2022/01/24 02:20:04;;;;;;;28.45;17.83;;;6.80;99.90;;;;;;5059211;28;20476;-85
2022/01/24 02:22:39;;;;;;;26.00;17.77;;;6.80;99.90;;;;;;5046205;28;20044;-87
2022/01/24 02:24:51;;;;;;;26.33;18.00;;;6.80;99.90;;;;;;5072055;28;20044;-86
2022/01/24 02:27:18;;;;;;;24.35;16.30;;;6.80;99.90;;;;;;5057272;28;20033;-85
2022/01/24 02:32:28;;;;;;;25.15;16.27;;;6.80;99.90;;;;;;5079634;28;20085;-85
2022/01/24 02:34:54;;;;;;;26.52;16.90;;;6.80;99.90;;;;;;5060261;28;20044;-84
2022/01/24 02:37:20;;;;;;;26.38;17.45;;;6.80;99.90;;;;;;5060454;28;20102;-85
2022/01/24 02:39:51;;;;;;;24.45;16.42;;;6.80;99.90;;;;;;5060990;28;20016;-84
2022/01/24 02:48:27;;;;;;;26.88;18.27;;;6.80;99.90;;;;;;5094992;28;20047;-84
2022/01/24 02:53:10;;;;;;;23.08;16.20;;;6.80;99.90;;;;;;5076669;28;20095;-84
2022/01/24 02:55:38;;;;;;;22.90;15.95;;;6.80;99.90;;;;;;5076424;28;20131;-85
2022/01/24 02:58:03;;;;;;;24.40;16.13;;;6.80;99.90;;;;;;5075453;28;20032;-85
2022/01/24 03:00:30;;;;;;;26.08;17.70;;;6.80;99.90;;;;;;5056278;28;20025;-86
2022/01/24 03:02:56;;;;;;;26.25;17.70;;;6.80;99.90;;;;;;5056483;28;20021;-84
2022/01/24 03:05:21;;;;;;;26.50;17.38;;;6.80;99.90;;;;;;5056794;28;20525;-84
2022/01/24 03:07:47;;;;;;;27.23;17.35;;;6.80;99.90;;;;;;5056674;28;20103;-83
2022/01/24 03:10:23;;;;;;;25.35;17.25;;;6.80;99.90;;;;;;5056115;28;20025;-85
2022/01/24 03:12:58;;;;;;;25.10;15.95;;;6.80;99.90;;;;;;5042585;28;20079;-85
2022/01/24 03:15:24;;;;;;;27.58;17.90;;;6.80;99.90;;;;;;5035664;28;20412;-85
2022/01/24 03:17:50;;;;;;;28.70;18.13;;;6.80;99.90;;;;;;5039310;28;20029;-85
2022/01/24 03:20:16;;;;;;;28.63;17.85;;;6.80;99.90;;;;;;5056002;28;20481;-85
2022/01/24 03:22:41;;;;;;;29.67;17.85;;;6.70;99.90;;;;;;5055915;28;20031;-85
2022/01/24 03:25:07;;;;;;;26.77;18.25;;;6.80;99.90;;;;;;5022657;28;20025;-84
2022/01/24 03:27:33;;;;;;;27.02;18.00;;;6.80;99.90;;;;;;5039024;28;20051;-84
2022/01/24 03:29:58;;;;;;;26.52;17.48;;;6.80;99.90;;;;;;5034701;28;20082;-84
2022/01/24 03:32:24;;;;;;;28.27;17.48;;;6.80;99.90;;;;;;5039226;28;20031;-86
2022/01/24 03:34:50;;;;;;;29.05;18.55;;;6.70;99.90;;;;;;5038951;28;20041;-84
2022/01/24 03:37:16;;;;;;;28.55;17.25;;;6.80;99.90;;;;;;5039303;28;20032;-84
2022/01/24 03:39:41;;;;;;;28.48;18.02;;;6.70;99.90;;;;;;5055418;28;20029;-85
2022/01/24 03:42:07;;;;;;;31.70;19.13;;;6.70;99.90;;;;;;5055822;28;20387;-84
2022/01/24 03:44:33;;;;;;;30.05;18.10;;;6.70;99.90;;;;;;5022535;28;20112;-85
2022/01/24 03:52:09;;;;;;;28.08;17.90;;;6.70;99.90;;;;;;5078584;28;20039;-85
2022/01/24 03:54:35;;;;;;;28.50;18.27;;;6.70;99.90;;;;;;5041832;28;20396;-86
2022/01/24 03:57:02;;;;;;;30.17;18.55;;;6.70;99.90;;;;;;5053279;28;20028;-84
2022/01/24 03:59:30;;;;;;;27.55;18.60;;;6.70;99.90;;;;;;5067126;28;20090;-84
2022/01/24 04:02:00;;;;;;;28.48;18.63;;;6.60;99.90;;;;;;5043152;28;20460;-85
2022/01/24 04:04:26;;;;;;;29.70;18.45;;;6.60;99.90;;;;;;5076183;28;20059;-85
2022/01/24 04:06:52;;;;;;;30.88;19.10;;;6.60;99.90;;;;;;5075138;28;20024;-84
2022/01/24 04:09:18;;;;;;;32.78;19.42;;;6.60;99.90;;;;;;5093852;28;20027;-84
2022/01/24 04:11:44;;;;;;;27.77;17.77;;;6.60;99.90;;;;;;5058834;28;20618;-84
2022/01/24 04:17:03;;;;;;;29.67;17.92;;;6.60;99.90;;;;;;5071997;28;20061;-84
2022/01/24 04:22:16;;;;;;;30.48;18.70;;;6.50;99.90;;;;;;5072077;28;20085;-84
2022/01/24 04:24:43;;;;;;;35.13;18.88;;;6.60;99.90;;;;;;5071827;28;20113;-84
2022/01/24 04:27:10;;;;;;;27.98;17.80;;;6.60;99.90;;;;;;5071946;28;20486;-84
2022/01/24 04:29:36;;;;;;;31.50;18.08;;;6.50;99.90;;;;;;5055221;28;20122;-85
2022/01/24 04:32:03;;;;;;;29.27;18.15;;;6.60;99.90;;;;;;5072794;28;20478;-84
2022/01/24 04:34:29;;;;;;;28.90;18.02;;;6.60;99.90;;;;;;5071609;28;20392;-84
2022/01/24 04:36:55;;;;;;;29.67;18.27;;;6.50;99.90;;;;;;5072139;28;20041;-84
2022/01/24 04:39:21;;;;;;;31.08;19.08;;;6.60;99.90;;;;;;5073094;28;20021;-84
2022/01/24 04:41:50;;;;;;;29.20;18.77;;;6.50;99.90;;;;;;5072957;28;20031;-84
2022/01/24 04:54:43;;;;;;;29.83;18.77;;;6.50;99.90;;;;;;5071673;28;20068;-84
2022/01/24 04:57:15;;;;;;;26.65;17.10;;;6.60;99.90;;;;;;5071565;28;20048;-85
2022/01/24 04:59:42;;;;;;;28.52;17.05;;;6.50;99.90;;;;;;5071590;28;20020;-85
2022/01/24 05:02:09;;;;;;;25.75;17.00;;;6.50;99.90;;;;;;5073371;28;20051;-85
2022/01/24 05:04:36;;;;;;;26.05;17.48;;;6.50;99.90;;;;;;5071689;28;20410;-84
2022/01/24 05:07:02;;;;;;;26.40;17.23;;;6.50;99.90;;;;;;5071442;28;20027;-84
2022/01/24 05:09:32;;;;;;;27.92;17.80;;;6.50;99.90;;;;;;5054977;28;20090;-85
2022/01/24 05:12:04;;;;;;;28.70;17.15;;;6.40;99.90;;;;;;5071511;28;20506;-84
2022/01/24 05:25:26;;;;;;;27.25;16.60;;;6.40;99.90;;;;;;5077603;28;20039;-84
2022/01/24 05:27:51;;;;;;;25.02;16.10;;;6.40;99.90;;;;;;5074461;28;20032;-84
2022/01/24 05:30:17;;;;;;;29.48;17.13;;;6.40;99.90;;;;;;5057682;28;20028;-85
2022/01/24 05:32:44;;;;;;;22.45;14.23;;;6.30;99.90;;;;;;5076220;28;20376;-84
2022/01/24 05:35:10;;;;;;;25.23;16.00;;;6.30;99.90;;;;;;5078954;28;20553;-85
2022/01/24 05:37:36;;;;;;;25.10;15.35;;;6.30;99.90;;;;;;5078301;28;20024;-84
2022/01/24 05:40:04;;;;;;;25.67;14.93;;;6.30;99.90;;;;;;5096008;28;20383;-84
2022/01/24 05:42:29;;;;;;;24.05;14.85;;;6.30;99.90;;;;;;5077939;28;20016;-84
2022/01/24 05:44:55;;;;;;;25.08;15.60;;;6.30;99.90;;;;;;5061298;28;20028;-84
2022/01/24 05:47:20;;;;;;;24.38;15.57;;;6.30;99.90;;;;;;5061099;28;20082;-84
2022/01/24 05:49:46;;;;;;;26.30;15.88;;;6.30;99.90;;;;;;5078260;28;20028;-85
2022/01/24 05:52:13;;;;;;;26.05;15.82;;;6.20;99.90;;;;;;5077860;28;20560;-85
2022/01/24 05:54:40;;;;;;;22.42;14.68;;;6.20;99.90;;;;;;5061073;28;20050;-84
2022/01/24 05:57:06;;;;;;;24.65;15.48;;;6.20;99.90;;;;;;5077824;28;20471;-84
2022/01/24 05:59:32;;;;;;;25.80;15.77;;;6.30;99.90;;;;;;5095864;28;20107;-84
2022/01/24 06:01:58;;;;;;;23.10;15.13;;;6.20;99.90;;;;;;5095541;28;20108;-85
2022/01/24 06:04:23;;;;;;;25.17;16.40;;;6.20;99.90;;;;;;5077503;28;20020;-85
2022/01/24 06:06:49;;;;;;;25.00;16.15;;;6.20;99.90;;;;;;5077689;28;20024;-84
2022/01/24 06:09:15;;;;;;;24.08;15.63;;;6.20;99.90;;;;;;5060819;28;20141;-84
2022/01/24 06:11:40;;;;;;;25.35;15.43;;;6.20;99.90;;;;;;5047810;28;20300;-83
2022/01/24 06:14:06;;;;;;;23.35;15.55;;;6.20;99.90;;;;;;5041004;28;20044;-84
2022/01/24 06:16:32;;;;;;;22.55;15.27;;;6.20;99.90;;;;;;5040338;28;20439;-84
2022/01/24 06:18:58;;;;;;;23.63;15.70;;;6.20;99.90;;;;;;5026864;28;20110;-85
2022/01/24 06:21:24;;;;;;;24.42;15.07;;;6.20;99.90;;;;;;5041192;28;20128;-84
2022/01/24 06:23:50;;;;;;;23.80;15.63;;;6.20;99.90;;;;;;5057786;28;20123;-84
2022/01/24 06:26:15;;;;;;;23.73;15.43;;;6.20;99.90;;;;;;5041262;28;20127;-85
2022/01/24 06:28:41;;;;;;;23.77;15.10;;;6.20;99.90;;;;;;5027016;28;20479;-84
2022/01/24 06:31:07;;;;;;;24.02;15.10;;;6.20;99.90;;;;;;5056935;28;20481;-86
2022/01/24 06:33:33;;;;;;;25.25;16.10;;;6.10;99.90;;;;;;5048488;28;20087;-84
2022/01/24 06:35:59;;;;;;;24.33;14.57;;;6.10;99.90;;;;;;5054307;28;20498;-85
2022/01/24 06:38:25;;;;;;;24.63;15.38;;;6.10;99.90;;;;;;5056829;28;20031;-82
2022/01/24 06:40:51;;;;;;;24.10;15.73;;;6.10;99.90;;;;;;5056062;28;20029;-83
2022/01/24 06:43:16;;;;;;;21.25;14.60;;;6.20;99.90;;;;;;5039663;28;20044;-84
2022/01/24 06:45:42;;;;;;;23.10;15.30;;;6.10;99.90;;;;;;5056502;28;20028;-84
2022/01/24 06:48:08;;;;;;;22.27;14.20;;;6.20;99.90;;;;;;5056013;28;20032;-84
2022/01/24 06:50:34;;;;;;;21.23;14.40;;;6.10;99.90;;;;;;5023494;28;20029;-83
2022/01/24 06:53:00;;;;;;;23.60;15.15;;;6.10;99.90;;;;;;5040687;28;20028;-84
2022/01/24 06:55:26;;;;;;;21.48;14.73;;;6.10;99.90;;;;;;5074739;28;20021;-83
2022/01/24 06:57:52;;;;;;;23.27;15.15;;;6.10;99.90;;;;;;5056283;28;20032;-92
2022/01/24 07:00:25;;;;;;;21.48;15.02;;;6.10;99.90;;;;;;5054059;28;20056;-83
2022/01/24 07:02:54;;;;;;;21.65;15.10;;;6.10;99.90;;;;;;5056621;28;20457;-85
2022/01/24 07:05:20;;;;;;;20.02;14.35;;;6.10;99.90;;;;;;5039872;28;20366;-84
2022/01/24 07:07:46;;;;;;;22.17;14.23;;;6.10;99.90;;;;;;5039945;28;20032;-84
2022/01/24 07:10:11;;;;;;;21.05;14.45;;;6.10;99.90;;;;;;5023079;28;20425;-85
2022/01/24 07:12:37;;;;;;;20.17;14.13;;;6.10;99.90;;;;;;5023351;28;20082;-85
2022/01/24 07:15:08;;;;;;;19.33;12.98;;;6.10;99.90;;;;;;5022792;28;20045;-85
2022/01/24 07:20:18;;;;;;;20.95;14.10;;;6.10;99.90;;;;;;5045221;28;20174;-85
2022/01/24 07:22:44;;;;;;;19.95;13.70;;;6.10;99.90;;;;;;5039819;28;20111;-85
2022/01/24 07:25:10;;;;;;;18.75;13.25;;;6.10;99.90;;;;;;5039526;28;20123;-85
2022/01/24 07:27:36;;;;;;;18.95;13.18;;;6.10;99.90;;;;;;5039900;28;20083;-84
2022/01/24 07:30:03;;;;;;;20.98;14.55;;;6.10;99.90;;;;;;5037418;28;20028;-85
2022/01/24 07:32:30;;;;;;;21.23;14.98;;;6.10;99.90;;;;;;5075953;28;20106;-85
2022/01/24 07:34:56;;;;;;;20.42;14.82;;;6.10;99.90;;;;;;5077012;28;20024;-85
2022/01/24 07:37:22;;;;;;;20.23;13.60;;;6.10;99.90;;;;;;5076196;28;20028;-85
2022/01/24 07:39:49;;;;;;;19.17;13.20;;;6.10;99.90;;;;;;5059461;28;20488;-86
2022/01/24 07:42:18;;;;;;;19.60;13.02;;;6.10;99.90;;;;;;5075759;28;20024;-85
2022/01/24 07:44:44;;;;;;;18.15;12.73;;;6.10;99.90;;;;;;5094054;28;20035;-84
2022/01/24 07:47:10;;;;;;;18.85;13.10;;;6.10;99.90;;;;;;5062139;28;20650;-85
2022/01/24 07:49:36;;;;;;;18.15;12.68;;;6.10;99.90;;;;;;5055330;28;20032;-84
2022/01/24 07:52:03;;;;;;;17.83;13.82;;;6.10;99.90;;;;;;5038862;28;20024;-85
2022/01/24 07:54:28;;;;;;;19.70;13.88;;;6.10;99.90;;;;;;5055283;28;20488;-85
2022/01/24 07:56:54;;;;;;;19.17;13.23;;;6.10;99.90;;;;;;5055240;28;20082;-85
2022/01/24 07:59:20;;;;;;;19.17;13.38;;;6.10;99.90;;;;;;5038953;28;20385;-85
2022/01/24 08:01:48;;;;;;;21.25;14.20;;;6.10;99.90;;;;;;5039110;28;20437;-86
2022/01/24 08:04:14;;;;;;;16.80;11.77;;;6.10;99.90;;;;;;5057470;28;20032;-85
2022/01/24 08:06:39;;;;;;;18.20;11.95;;;6.00;99.90;;;;;;5057592;28;20051;-85
2022/01/24 08:09:09;;;;;;;19.52;12.48;;;6.10;99.90;;;;;;5055426;28;20032;-85
2022/01/24 08:11:35;;;;;;;18.35;12.20;;;6.00;99.90;;;;;;5073288;28;20029;-85
2022/01/24 08:14:01;;;;;;;19.98;13.35;;;6.00;99.90;;;;;;5054956;28;20579;-85
2022/01/24 08:16:28;;;;;;;18.45;11.57;;;6.00;99.90;;;;;;5038504;28;20086;-85
2022/01/24 08:18:56;;;;;;;17.73;12.23;;;6.00;99.90;;;;;;5038344;28;20036;-84
2022/01/24 08:21:22;;;;;;;23.60;11.65;;;6.00;99.90;;;;;;5038808;28;20028;-85
2022/01/24 08:23:49;;;;;;;16.35;12.02;;;6.00;99.90;;;;;;5055145;28;20024;-86
2022/01/24 08:26:14;;;;;;;18.63;13.20;;;5.90;99.90;;;;;;5038888;28;20032;-85
2022/01/24 08:28:40;;;;;;;18.90;12.20;;;6.00;99.90;;;;;;5038878;28;20036;-85
2022/01/24 08:31:06;;;;;;;18.58;11.15;;;6.00;99.90;;;;;;5038549;28;20020;-85
2022/01/24 08:33:31;;;;;;;18.20;11.43;;;6.00;99.90;;;;;;5055037;28;20036;-85
2022/01/24 08:35:57;;;;;;;21.27;11.98;;;6.00;99.90;;;;;;5073260;28;20373;-85
2022/01/24 08:38:23;;;;;;;17.75;12.68;;;6.00;99.90;;;;;;5055088;28;20025;-85
2022/01/24 08:40:54;;;;;;;15.45;10.70;;;6.00;99.90;;;;;;5055174;28;20483;-85
2022/01/24 08:43:38;;;;;;;15.40;11.30;;;6.00;99.90;;;;;;5054923;28;20025;-86
2022/01/24 08:46:05;;;;;;;17.40;11.77;;;6.00;99.90;;;;;;5055023;28;20178;-86
2022/01/24 08:48:31;;;;;;;19.10;12.25;;;6.00;99.90;;;;;;5055456;28;20021;-83
2022/01/24 08:50:59;;;;;;;18.92;12.15;;;5.90;99.90;;;;;;5038507;28;20024;-84
2022/01/24 08:53:34;;;;;;;16.48;11.13;;;5.90;99.90;;;;;;5039760;28;20037;-82
2022/01/24 08:56:04;;;;;;;20.08;12.85;;;6.00;99.90;;;;;;5074554;28;20025;-85
2022/01/24 08:58:30;;;;;;;17.70;11.82;;;5.90;99.90;;;;;;5055193;28;20021;-84
2022/01/24 09:00:56;;;;;;;19.58;12.57;;;5.90;99.90;;;;;;5062462;28;20028;-87
2022/01/24 09:03:22;;;;;;;18.17;12.35;;;5.90;99.90;;;;;;5074840;28;20480;-83
2022/01/24 09:05:52;;;;;;;17.00;12.18;;;5.90;99.90;;;;;;5074827;28;20063;-84
2022/01/24 09:08:18;;;;;;;17.70;12.63;;;5.90;99.90;;;;;;5079364;28;20063;-84
2022/01/24 09:10:46;;;;;;;19.42;13.18;;;5.90;99.90;;;;;;5096862;28;20020;-83
2022/01/24 09:13:12;;;;;;;17.77;11.70;;;5.90;99.90;;;;;;5078981;28;20028;-84
2022/01/24 09:15:38;;;;;;;20.60;12.73;;;5.90;99.90;;;;;;5062000;28;20058;-83
2022/01/24 09:18:04;;;;;;;16.83;12.27;;;5.90;99.90;;;;;;5061515;28;20032;-84
2022/01/24 09:20:30;;;;;;;17.98;12.20;;;5.90;99.90;;;;;;5078430;28;20081;-84
2022/01/24 09:22:56;;;;;;;16.77;11.95;;;5.90;99.90;;;;;;5078397;28;20052;-85
2022/01/24 09:25:23;;;;;;;20.17;11.75;;;5.90;99.90;;;;;;5078298;28;20032;-84
2022/01/24 09:27:49;;;;;;;19.42;13.15;;;5.90;99.90;;;;;;5096278;28;20035;-83
2022/01/24 09:30:17;;;;;;;17.55;12.60;;;6.00;99.90;;;;;;5078050;28;20456;-84
2022/01/24 09:32:43;;;;;;;16.48;11.82;;;6.00;99.90;;;;;;5077920;28;20024;-83
2022/01/24 09:35:11;;;;;;;17.83;12.68;;;6.00;99.90;;;;;;5061286;28;20039;-84
2022/01/24 09:37:39;;;;;;;26.42;13.23;;;6.00;99.90;;;;;;5095586;28;20024;-83
2022/01/24 09:40:05;;;;;;;17.63;12.93;;;6.00;99.90;;;;;;5077805;28;20039;-83
2022/01/24 09:42:31;;;;;;;18.75;13.48;;;6.00;99.90;;;;;;5061345;28;20056;-83
2022/01/24 09:44:57;;;;;;;18.23;11.52;;;6.00;99.90;;;;;;5078012;28;20058;-86
2022/01/24 09:47:23;;;;;;;17.80;13.18;;;6.00;99.90;;;;;;5077801;28;20403;-82
2022/01/24 09:49:51;;;;;;;17.25;12.77;;;6.00;99.90;;;;;;5077811;28;20055;-84
2022/01/24 09:52:17;;;;;;;17.05;12.63;;;6.00;99.90;;;;;;5078084;28;20035;-84
2022/01/24 09:54:43;;;;;;;17.73;13.05;;;6.00;99.90;;;;;;5077971;28;20028;-85
2022/01/24 09:57:09;;;;;;;19.02;13.05;;;6.00;99.90;;;;;;5095973;28;20487;-84
2022/01/24 09:59:35;;;;;;;19.05;13.45;;;6.00;99.90;;;;;;5077843;28;20028;-84
2022/01/24 10:02:02;;;;;;;18.83;13.18;;;6.00;99.90;;;;;;5076870;28;20028;-84
2022/01/24 10:04:28;;;;;;;18.92;13.73;;;6.00;99.90;;;;;;5060909;28;20422;-85
2022/01/24 10:07:00;;;;;;;19.40;13.63;;;6.00;99.90;;;;;;5061034;28;20024;-84
2022/01/24 10:09:41;;;;;;;20.73;13.73;;;6.00;99.90;;;;;;5077619;28;20545;-84
2022/01/24 10:12:18;;;;;;;19.90;12.95;;;6.00;99.90;;;;;;5095835;28;20115;-84
2022/01/24 10:17:35;;;;;;;16.33;12.80;;;6.00;99.90;;;;;;5095562;28;20051;-84
2022/01/24 10:20:28;;;;;;;20.33;12.90;;;6.00;99.90;;;;;;5060068;28;20024;-85
2022/01/24 10:23:28;;;;;;;19.13;12.75;;;6.00;99.90;;;;;;5077534;28;20031;-84
2022/01/24 10:25:55;;;;;;;17.42;13.55;;;6.00;99.90;;;;;;5095670;28;20020;-82
2022/01/24 10:28:28;;;;;;;19.35;13.30;;;6.00;99.90;;;;;;5077263;28;20050;-84
2022/01/24 10:31:06;;;;;;;19.15;13.07;;;6.10;99.90;;;;;;5077492;28;20468;-84
2022/01/24 10:33:48;;;;;;;16.95;13.43;;;6.10;99.90;;;;;;5095335;28;20028;-84
2022/01/24 10:36:33;;;;;;;15.80;12.20;;;6.10;99.90;;;;;;5077182;28;20091;-84
2022/01/24 10:39:12;;;;;;;16.27;12.75;;;6.10;99.90;;;;;;5094052;28;20061;-81
2022/01/24 10:44:34;;;;;;;14.50;9.15;;;6.00;99.90;;;;;;5095745;28;20028;-86
2022/01/24 10:47:31;;;;;;;13.93;11.27;;;6.00;99.90;;;;;;5076744;28;20043;-83
2022/01/24 10:49:59;;;;;;;15.63;12.90;;;6.00;99.90;;;;;;5082617;28;20040;-84
2022/01/24 10:52:27;;;;;;;14.93;11.85;;;6.00;99.90;;;;;;5094937;28;20028;-84
2022/01/24 10:55:24;;;;;;;15.32;12.02;;;6.00;99.90;;;;;;5095033;28;20039;-84
2022/01/24 10:58:13;;;;;;;16.65;11.93;;;6.00;99.90;;;;;;5094877;28;20026;-84
2022/01/24 11:00:40;;;;;;;15.52;11.95;;;6.00;99.90;;;;;;5094611;28;20023;-84
2022/01/24 11:03:08;;;;;;;13.32;10.95;;;6.00;99.90;;;;;;5076497;28;20030;-84
2022/01/24 11:05:36;;;;;;;12.88;9.50;;;6.00;99.90;;;;;;5060141;28;20028;-83
2022/01/24 11:08:11;;;;;;;13.23;9.77;;;6.00;99.90;;;;;;5094847;28;20065;-84
2022/01/24 11:10:46;;;;;;;13.00;9.73;;;6.00;99.90;;;;;;5095012;28;20024;-85
2022/01/24 11:13:13;;;;;;;12.82;9.32;;;6.00;99.90;;;;;;5076442;28;20487;-88
2022/01/24 11:15:48;;;;;;;15.65;10.65;;;6.00;99.90;;;;;;5076116;28;20051;-84
2022/01/24 11:18:15;;;;;;;13.68;9.70;;;6.10;99.90;;;;;;5093566;28;20021;-85
2022/01/24 11:20:45;;;;;;;14.00;10.40;;;6.10;99.90;;;;;;5060011;28;20024;-85
2022/01/24 11:23:12;;;;;;;15.50;11.57;;;6.00;99.90;;;;;;5076337;28;20052;-84
2022/01/24 11:25:40;;;;;;;14.13;11.82;;;6.10;99.90;;;;;;5060079;28;20526;-84
2022/01/24 11:28:07;;;;;;;17.15;12.95;;;6.10;99.90;;;;;;5094384;28;20024;-85
2022/01/24 11:30:53;;;;;;;16.42;11.68;;;6.10;99.90;;;;;;5093736;28;20031;-84
2022/01/24 11:33:31;;;;;;;16.23;11.50;;;6.10;99.90;;;;;;5094329;28;20564;-87
2022/01/24 11:36:01;;;;;;;14.80;10.60;;;6.10;99.90;;;;;;5094781;28;20065;-84
2022/01/24 11:38:42;;;;;;;12.27;9.93;;;6.10;99.90;;;;;;5075918;28;20036;-84
2022/01/24 11:41:25;;;;;;;13.15;10.98;;;6.10;99.90;;;;;;5076171;28;20020;-85
2022/01/24 11:44:00;;;;;;;16.15;11.32;;;6.20;99.90;;;;;;5094132;28;20060;-83
2022/01/24 11:46:55;;;;;;;16.58;11.85;;;6.20;99.90;;;;;;5076813;28;20492;-84
2022/01/24 11:49:35;;;;;;;14.35;11.45;;;6.20;99.90;;;;;;5092580;28;20114;-84
2022/01/24 11:52:18;;;;;;;15.63;12.15;;;6.20;99.90;;;;;;5076247;28;20024;-84
2022/01/24 11:54:48;;;;;;;14.93;11.40;;;6.20;99.90;;;;;;5076646;28;20028;-83
2022/01/24 11:57:26;;;;;;;17.73;13.70;;;6.30;99.90;;;;;;5095062;28;20031;-85
2022/01/24 12:00:12;;;;;;;15.38;11.65;;;6.30;99.90;;;;;;5095256;28;20017;-83
2022/01/24 12:02:43;;;;;;;16.52;12.77;;;6.30;99.90;;;;;;5094733;28;20468;-85
2022/01/24 12:05:22;;;;;;;16.25;13.07;;;6.30;99.90;;;;;;5102789;28;20039;-86
2022/01/24 12:08:01;;;;;;;17.42;14.38;;;6.30;99.90;;;;;;5092977;28;20031;-83
2022/01/24 12:10:33;;;;;;;14.65;12.68;;;6.40;99.90;;;;;;5094030;28;20026;-83
2022/01/24 12:13:02;;;;;;;16.23;12.77;;;6.40;99.90;;;;;;5093247;28;20056;-85
2022/01/24 12:15:37;;;;;;;17.50;13.32;;;6.40;99.90;;;;;;5085858;28;20052;-83
2022/01/24 12:18:05;;;;;;;15.77;12.32;;;6.40;99.90;;;;;;5079128;28;20028;-84
2022/01/24 12:20:30;;;;;;;15.23;12.55;;;6.40;99.90;;;;;;5094029;28;20028;-84
2022/01/24 12:22:57;;;;;;;14.48;12.02;;;6.40;99.90;;;;;;5075475;28;20024;-86
2022/01/24 12:25:58;;;;;;;14.18;11.95;;;6.40;99.90;;;;;;5093452;28;20020;-84
2022/01/24 12:28:29;;;;;;;15.25;12.60;;;6.40;99.90;;;;;;5093305;28;20046;-84
2022/01/24 12:31:25;;;;;;;14.10;12.57;;;6.40;99.90;;;;;;5093902;28;20035;-84
2022/01/24 12:33:53;;;;;;;15.48;11.90;;;6.40;99.90;;;;;;5075699;28;20035;-84
2022/01/24 12:36:37;;;;;;;15.23;11.65;;;6.40;99.90;;;;;;5076121;28;20454;-84
2022/01/24 12:39:48;;;;;;;15.02;11.63;;;6.40;99.90;;;;;;5075763;28;20031;-84
2022/01/24 12:43:05;;;;;;;13.10;11.63;;;6.40;99.90;;;;;;5067764;28;20548;-85
2022/01/24 12:48:08;;;;;;;13.98;12.20;;;6.50;99.90;;;;;;5097479;28;20089;-85
2022/01/24 12:50:34;;;;;;;;;;;6.40;99.90;;;;;;5097472;28;20464;-84
2022/01/24 12:52:59;;;;;;;16.80;12.10;;;6.50;99.90;;;;;;5079077;28;19918;-84
2022/01/24 12:55:25;;;;;;;15.95;12.88;;;6.50;99.90;;;;;;5078839;28;20093;-84
2022/01/24 12:57:51;;;;;;;16.98;14.00;;;6.60;99.90;;;;;;5079033;28;20119;-83
2022/01/24 13:00:19;;;;;;;14.88;13.23;;;6.60;99.90;;;;;;5076912;28;20477;-83
2022/01/24 13:02:45;;;;;;;17.90;13.98;;;6.60;99.90;;;;;;5041873;28;20043;-84
2022/01/24 13:05:21;;;;;;;16.70;13.73;;;6.60;99.90;;;;;;5077091;28;20024;-83
2022/01/24 13:08:07;;;;;;;16.08;13.82;;;6.60;99.90;;;;;;5058909;28;20025;-83
2022/01/24 13:10:33;;;;;;;20.05;16.35;;;6.70;99.90;;;;;;5058747;28;20033;-84
2022/01/24 13:13:07;;;;;;;17.02;14.10;;;6.60;99.90;;;;;;5058435;28;20089;-85
2022/01/24 13:21:11;;;;;;;17.70;13.55;;;6.70;99.90;;;;;;5076908;28;20040;-83
2022/01/24 13:23:42;;;;;;;15.93;13.57;;;6.70;99.90;;;;;;5076131;28;20024;-83
2022/01/24 13:26:09;;;;;;;16.33;14.13;;;6.60;99.90;;;;;;5058909;28;20377;-83
2022/01/24 13:28:34;;;;;;;19.42;15.43;;;6.70;99.90;;;;;;5042244;28;20031;-83
2022/01/24 13:31:02;;;;;;;17.52;14.70;;;6.70;99.90;;;;;;5041519;28;20028;-84
2022/01/24 13:33:30;;;;;;;16.77;14.70;;;6.70;99.90;;;;;;5076122;28;20030;-84
2022/01/24 13:35:59;;;;;;;17.20;15.32;;;6.80;99.90;;;;;;5076022;28;20028;-83
2022/01/24 13:38:29;;;;;;;17.52;15.68;;;6.70;99.90;;;;;;5076116;28;20021;-84
2022/01/24 13:41:02;;;;;;;17.90;16.00;;;6.80;99.90;;;;;;5075959;28;20025;-83
2022/01/24 13:43:43;;;;;;;17.45;15.60;;;6.80;99.90;;;;;;5075876;28;20042;-83
2022/01/24 13:46:11;;;;;;;19.20;17.10;;;6.70;99.90;;;;;;5058088;28;20457;-82
2022/01/24 13:48:58;;;;;;;18.77;16.50;;;6.70;99.90;;;;;;5075762;28;20103;-84
2022/01/24 13:51:38;;;;;;;18.33;16.33;;;6.70;99.90;;;;;;5075689;28;20060;-84
2022/01/24 13:54:10;;;;;;;20.50;16.70;;;6.80;99.90;;;;;;5056729;28;20123;-83
2022/01/24 13:56:44;;;;;;;17.92;15.85;;;6.80;99.90;;;;;;5075619;28;20032;-83
2022/01/24 13:59:19;;;;;;;17.90;15.95;;;6.80;99.90;;;;;;5042497;28;20028;-83
2022/01/24 14:02:00;;;;;;;19.02;16.05;;;6.80;99.90;;;;;;5057802;28;20082;-83
2022/01/24 14:04:35;;;;;;;17.77;15.88;;;6.80;99.90;;;;;;5075115;28;20456;-84
2022/01/24 14:07:03;;;;;;;18.48;16.05;;;6.80;99.90;;;;;;5057443;28;20063;-84
2022/01/24 14:09:42;;;;;;;17.58;15.30;;;6.80;99.90;;;;;;5075267;28;20055;-84
2022/01/24 14:12:40;;;;;;;18.45;16.42;;;6.80;99.90;;;;;;5075151;28;20036;-84
2022/01/24 14:15:19;;;;;;;18.95;16.38;;;6.80;99.90;;;;;;5056919;28;20031;-84
2022/01/24 14:20:20;;;;;;;19.08;16.88;;;6.80;99.90;;;;;;5057512;28;20153;-84
2022/01/24 14:22:52;;;;;;;19.15;16.55;;;6.80;99.90;;;;;;5057401;28;20035;-84
2022/01/24 14:25:23;;;;;;;23.77;17.48;;;6.80;99.90;;;;;;5074997;28;20349;-87
2022/01/24 14:27:51;;;;;;;20.55;17.13;;;6.90;99.90;;;;;;5057306;28;20029;-84
2022/01/24 14:30:21;;;;;;;17.95;16.00;;;6.90;99.90;;;;;;5075610;28;20032;-84
2022/01/24 14:33:15;;;;;;;18.63;16.48;;;6.90;99.90;;;;;;5057099;28;20017;-84
2022/01/24 14:36:15;;;;;;;19.65;16.33;;;6.90;99.90;;;;;;5071194;28;20079;-84
2022/01/24 14:38:47;;;;;;;19.10;15.90;;;6.90;99.90;;;;;;5042345;28;20033;-84
2022/01/24 14:41:18;;;;;;;17.67;15.77;;;6.90;99.90;;;;;;5075097;28;20021;-84
2022/01/24 14:46:36;;;;;;;21.27;17.25;;;6.90;99.90;;;;;;5074733;28;20158;-85